sensor_id;sensor_type;location;lat;lon;timestamp;temperature;humidity
3275;DHT22;1649;53.672;10.064;2022-08-21T00:01:28;15.10;99.90
3275;DHT22;1649;53.672;10.064;2022-08-21T00:03:55;15.10;99.90
3275;DHT22;1649;53.672;10.064;2022-08-21T00:06:21;15.10;99.90
3275;DHT22;1649;53.672;10.064;2022-08-21T00:08:47;15.10;99.90
3275;DHT22;1649;53.672;10.064;2022-08-21T00:11:13;15.00;99.90
3275;DHT22;1649;53.672;10.064;2022-08-21T00:13:39;15.00;99.90
3275;DHT22;1649;53.672;10.064;2022-08-21T00:16:05;15.00;99.90
3275;DHT22;1649;53.672;10.064;2022-08-21T00:18:31;15.00;99.90
3275;DHT22;1649;53.672;10.064;2022-08-21T00:20:56;15.00;99.90
3275;DHT22;1649;53.672;10.064;2022-08-21T00:23:22;15.00;99.90
3275;DHT22;1649;53.672;10.064;2022-08-21T00:25:48;14.90;99.90
3275;DHT22;1649;53.672;10.064;2022-08-21T00:28:14;14.90;99.90
3275;DHT22;1649;53.672;10.064;2022-08-21T00:30:40;14.90;99.90
3275;DHT22;1649;53.672;10.064;2022-08-21T00:33:07;14.90;99.90
3275;DHT22;1649;53.672;10.064;2022-08-21T00:35:36;14.90;99.90
3275;DHT22;1649;53.672;10.064;2022-08-21T00:38:04;14.90;99.90
3275;DHT22;1649;53.672;10.064;2022-08-21T00:40:37;14.90;99.90
3275;DHT22;1649;53.672;10.064;2022-08-21T00:43:04;14.90;99.90
3275;DHT22;1649;53.672;10.064;2022-08-21T00:45:32;14.90;99.90
3275;DHT22;1649;53.672;10.064;2022-08-21T00:47:57;14.90;99.90
3275;DHT22;1649;53.672;10.064;2022-08-21T00:50:26;14.80;99.90
3275;DHT22;1649;53.672;10.064;2022-08-21T00:52:53;14.80;99.90
3275;DHT22;1649;53.672;10.064;2022-08-21T00:55:20;14.80;99.90
3275;DHT22;1649;53.672;10.064;2022-08-21T00:57:50;14.70;99.90
3275;DHT22;1649;53.672;10.064;2022-08-21T01:00:23;14.70;99.90
3275;DHT22;1649;53.672;10.064;2022-08-21T01:02:49;14.70;99.90
3275;DHT22;1649;53.672;10.064;2022-08-21T01:05:14;14.60;99.90
3275;DHT22;1649;53.672;10.064;2022-08-21T01:07:41;14.60;99.90
3275;DHT22;1649;53.672;10.064;2022-08-21T01:10:08;14.60;99.90
3275;DHT22;1649;53.672;10.064;2022-08-21T01:12:34;14.60;99.90
3275;DHT22;1649;53.672;10.064;2022-08-21T01:15:03;14.50;99.90
3275;DHT22;1649;53.672;10.064;2022-08-21T01:17:30;14.50;99.90
3275;DHT22;1649;53.672;10.064;2022-08-21T01:20:00;14.50;99.90
3275;DHT22;1649;53.672;10.064;2022-08-21T01:22:26;14.50;99.90
3275;DHT22;1649;53.672;10.064;2022-08-21T01:24:52;14.50;99.90
3275;DHT22;1649;53.672;10.064;2022-08-21T01:27:18;14.50;99.90
3275;DHT22;1649;53.672;10.064;2022-08-21T01:29:53;14.50;99.90
3275;DHT22;1649;53.672;10.064;2022-08-21T01:32:19;14.40;99.90
3275;DHT22;1649;53.672;10.064;2022-08-21T01:34:47;14.40;99.90
3275;DHT22;1649;53.672;10.064;2022-08-21T01:37:13;14.40;99.90
3275;DHT22;1649;53.672;10.064;2022-08-21T01:39:40;14.40;99.90
3275;DHT22;1649;53.672;10.064;2022-08-21T01:42:06;14.40;99.90
3275;DHT22;1649;53.672;10.064;2022-08-21T01:44:32;14.30;99.90
3275;DHT22;1649;53.672;10.064;2022-08-21T01:47:00;14.30;99.90
3275;DHT22;1649;53.672;10.064;2022-08-21T01:49:26;14.30;99.90
3275;DHT22;1649;53.672;10.064;2022-08-21T01:51:52;14.20;99.90
3275;DHT22;1649;53.672;10.064;2022-08-21T01:54:18;14.20;99.90
3275;DHT22;1649;53.672;10.064;2022-08-21T01:56:47;14.20;99.90
3275;DHT22;1649;53.672;10.064;2022-08-21T01:59:14;14.20;99.90
3275;DHT22;1649;53.672;10.064;2022-08-21T02:01:39;14.10;99.90
3275;DHT22;1649;53.672;10.064;2022-08-21T02:04:06;14.20;99.90
3275;DHT22;1649;53.672;10.064;2022-08-21T02:06:32;14.20;99.90
3275;DHT22;1649;53.672;10.064;2022-08-21T02:08:58;14.10;99.90
3275;DHT22;1649;53.672;10.064;2022-08-21T02:11:24;14.10;99.90
3275;DHT22;1649;53.672;10.064;2022-08-21T02:13:49;14.00;99.90
3275;DHT22;1649;53.672;10.064;2022-08-21T02:16:15;14.00;99.90
3275;DHT22;1649;53.672;10.064;2022-08-21T02:18:41;13.90;99.90
3275;DHT22;1649;53.672;10.064;2022-08-21T02:21:07;13.90;99.90
3275;DHT22;1649;53.672;10.064;2022-08-21T02:23:33;14.00;99.90
3275;DHT22;1649;53.672;10.064;2022-08-21T02:25:59;13.90;99.90
3275;DHT22;1649;53.672;10.064;2022-08-21T02:28:26;13.90;99.90
3275;DHT22;1649;53.672;10.064;2022-08-21T02:30:52;13.90;99.90
3275;DHT22;1649;53.672;10.064;2022-08-21T02:33:18;13.90;99.90
3275;DHT22;1649;53.672;10.064;2022-08-21T02:35:44;13.80;99.90
3275;DHT22;1649;53.672;10.064;2022-08-21T02:38:13;13.80;99.90
3275;DHT22;1649;53.672;10.064;2022-08-21T02:40:41;13.80;99.90
3275;DHT22;1649;53.672;10.064;2022-08-21T02:43:07;13.80;99.90
3275;DHT22;1649;53.672;10.064;2022-08-21T02:45:34;13.80;99.90
3275;DHT22;1649;53.672;10.064;2022-08-21T02:48:02;13.80;99.90
3275;DHT22;1649;53.672;10.064;2022-08-21T02:50:44;13.80;99.90
3275;DHT22;1649;53.672;10.064;2022-08-21T02:53:12;13.80;99.90
3275;DHT22;1649;53.672;10.064;2022-08-21T02:55:39;13.70;99.90
3275;DHT22;1649;53.672;10.064;2022-08-21T02:58:06;13.70;99.90
3275;DHT22;1649;53.672;10.064;2022-08-21T03:00:33;13.70;99.90
3275;DHT22;1649;53.672;10.064;2022-08-21T03:03:00;13.70;99.90
3275;DHT22;1649;53.672;10.064;2022-08-21T03:05:27;13.60;99.90
3275;DHT22;1649;53.672;10.064;2022-08-21T03:07:53;13.60;99.90
3275;DHT22;1649;53.672;10.064;2022-08-21T03:10:21;13.60;99.90
3275;DHT22;1649;53.672;10.064;2022-08-21T03:12:48;13.50;99.90
3275;DHT22;1649;53.672;10.064;2022-08-21T03:15:15;13.60;99.90
3275;DHT22;1649;53.672;10.064;2022-08-21T03:17:42;13.60;99.90
3275;DHT22;1649;53.672;10.064;2022-08-21T03:20:08;13.50;99.90
3275;DHT22;1649;53.672;10.064;2022-08-21T03:22:34;13.50;99.90
3275;DHT22;1649;53.672;10.064;2022-08-21T03:25:01;13.50;99.90
3275;DHT22;1649;53.672;10.064;2022-08-21T03:27:27;13.40;99.90
3275;DHT22;1649;53.672;10.064;2022-08-21T03:29:54;13.40;99.90
3275;DHT22;1649;53.672;10.064;2022-08-21T03:32:20;13.30;99.90
3275;DHT22;1649;53.672;10.064;2022-08-21T03:34:46;13.40;99.90
3275;DHT22;1649;53.672;10.064;2022-08-21T03:37:12;13.20;99.90
3275;DHT22;1649;53.672;10.064;2022-08-21T03:39:39;13.20;99.90
3275;DHT22;1649;53.672;10.064;2022-08-21T03:42:04;13.30;99.90
3275;DHT22;1649;53.672;10.064;2022-08-21T03:44:31;13.30;99.90
3275;DHT22;1649;53.672;10.064;2022-08-21T03:46:57;13.30;99.90
3275;DHT22;1649;53.672;10.064;2022-08-21T03:49:24;13.40;99.90
3275;DHT22;1649;53.672;10.064;2022-08-21T03:51:49;13.30;99.90
3275;DHT22;1649;53.672;10.064;2022-08-21T03:54:15;13.30;99.90
3275;DHT22;1649;53.672;10.064;2022-08-21T03:56:41;13.30;99.90
3275;DHT22;1649;53.672;10.064;2022-08-21T03:59:07;13.30;99.90
3275;DHT22;1649;53.672;10.064;2022-08-21T04:01:33;13.30;99.90
3275;DHT22;1649;53.672;10.064;2022-08-21T04:03:58;13.30;99.90
3275;DHT22;1649;53.672;10.064;2022-08-21T04:06:24;13.30;99.90
3275;DHT22;1649;53.672;10.064;2022-08-21T04:08:51;13.30;99.90
3275;DHT22;1649;53.672;10.064;2022-08-21T04:11:16;13.30;99.90
3275;DHT22;1649;53.672;10.064;2022-08-21T04:13:42;13.30;99.90
3275;DHT22;1649;53.672;10.064;2022-08-21T04:16:07;13.30;99.90
3275;DHT22;1649;53.672;10.064;2022-08-21T04:18:33;13.30;99.90
3275;DHT22;1649;53.672;10.064;2022-08-21T04:20:59;13.20;99.90
3275;DHT22;1649;53.672;10.064;2022-08-21T04:23:25;13.20;99.90
3275;DHT22;1649;53.672;10.064;2022-08-21T04:25:52;13.20;99.90
3275;DHT22;1649;53.672;10.064;2022-08-21T04:28:18;13.10;99.90
3275;DHT22;1649;53.672;10.064;2022-08-21T04:30:44;13.20;99.90
3275;DHT22;1649;53.672;10.064;2022-08-21T04:33:10;13.20;99.90
3275;DHT22;1649;53.672;10.064;2022-08-21T04:35:35;13.10;99.90
3275;DHT22;1649;53.672;10.064;2022-08-21T04:38:01;13.20;99.90
3275;DHT22;1649;53.672;10.064;2022-08-21T04:40:28;13.20;99.90
3275;DHT22;1649;53.672;10.064;2022-08-21T04:43:11;13.20;99.90
3275;DHT22;1649;53.672;10.064;2022-08-21T04:45:40;13.30;99.90
3275;DHT22;1649;53.672;10.064;2022-08-21T04:48:08;13.40;99.90
3275;DHT22;1649;53.672;10.064;2022-08-21T04:50:39;13.50;99.90
3275;DHT22;1649;53.672;10.064;2022-08-21T04:53:11;13.50;99.90
3275;DHT22;1649;53.672;10.064;2022-08-21T04:55:38;13.50;99.90
3275;DHT22;1649;53.672;10.064;2022-08-21T04:58:06;13.60;99.90
3275;DHT22;1649;53.672;10.064;2022-08-21T05:00:33;13.60;99.90
3275;DHT22;1649;53.672;10.064;2022-08-21T05:03:00;13.60;99.90
3275;DHT22;1649;53.672;10.064;2022-08-21T05:05:28;13.60;99.90
3275;DHT22;1649;53.672;10.064;2022-08-21T05:07:55;13.60;99.90
3275;DHT22;1649;53.672;10.064;2022-08-21T05:10:22;13.60;99.90
3275;DHT22;1649;53.672;10.064;2022-08-21T05:12:48;13.70;99.90
3275;DHT22;1649;53.672;10.064;2022-08-21T05:15:15;13.70;99.90
3275;DHT22;1649;53.672;10.064;2022-08-21T05:17:42;13.70;99.90
3275;DHT22;1649;53.672;10.064;2022-08-21T05:20:09;13.90;99.90
3275;DHT22;1649;53.672;10.064;2022-08-21T05:22:35;13.90;99.90
3275;DHT22;1649;53.672;10.064;2022-08-21T05:25:01;13.90;99.90
3275;DHT22;1649;53.672;10.064;2022-08-21T05:27:26;14.00;99.90
3275;DHT22;1649;53.672;10.064;2022-08-21T05:29:55;14.10;99.90
3275;DHT22;1649;53.672;10.064;2022-08-21T05:32:21;14.20;99.90
3275;DHT22;1649;53.672;10.064;2022-08-21T05:34:46;14.40;99.90
3275;DHT22;1649;53.672;10.064;2022-08-21T05:37:12;14.50;99.90
3275;DHT22;1649;53.672;10.064;2022-08-21T05:39:37;14.70;99.90
3275;DHT22;1649;53.672;10.064;2022-08-21T05:42:03;14.70;99.90
3275;DHT22;1649;53.672;10.064;2022-08-21T05:44:28;14.80;99.90
3275;DHT22;1649;53.672;10.064;2022-08-21T05:46:54;14.90;99.90
3275;DHT22;1649;53.672;10.064;2022-08-21T05:49:19;14.90;99.90
3275;DHT22;1649;53.672;10.064;2022-08-21T05:51:45;15.00;99.90
3275;DHT22;1649;53.672;10.064;2022-08-21T05:54:10;15.10;99.90
3275;DHT22;1649;53.672;10.064;2022-08-21T05:56:36;15.10;99.90
3275;DHT22;1649;53.672;10.064;2022-08-21T05:59:03;15.20;99.90
3275;DHT22;1649;53.672;10.064;2022-08-21T06:01:28;15.40;99.90
3275;DHT22;1649;53.672;10.064;2022-08-21T06:03:54;15.40;99.90
3275;DHT22;1649;53.672;10.064;2022-08-21T06:06:19;15.50;99.90
3275;DHT22;1649;53.672;10.064;2022-08-21T06:08:45;15.70;99.90
3275;DHT22;1649;53.672;10.064;2022-08-21T06:11:10;15.80;99.90
3275;DHT22;1649;53.672;10.064;2022-08-21T06:13:37;15.90;99.90
3275;DHT22;1649;53.672;10.064;2022-08-21T06:16:08;16.00;99.90
3275;DHT22;1649;53.672;10.064;2022-08-21T06:18:35;16.10;99.90
3275;DHT22;1649;53.672;10.064;2022-08-21T06:21:01;16.10;99.90
3275;DHT22;1649;53.672;10.064;2022-08-21T06:23:26;16.10;99.90
3275;DHT22;1649;53.672;10.064;2022-08-21T06:25:52;16.20;99.90
3275;DHT22;1649;53.672;10.064;2022-08-21T06:28:17;16.30;99.90
3275;DHT22;1649;53.672;10.064;2022-08-21T06:30:43;16.50;99.90
3275;DHT22;1649;53.672;10.064;2022-08-21T06:33:09;16.80;99.90
3275;DHT22;1649;53.672;10.064;2022-08-21T06:35:34;16.90;99.90
3275;DHT22;1649;53.672;10.064;2022-08-21T06:38:00;17.10;99.90
3275;DHT22;1649;53.672;10.064;2022-08-21T06:40:27;17.50;99.90
3275;DHT22;1649;53.672;10.064;2022-08-21T06:42:53;17.40;99.90
3275;DHT22;1649;53.672;10.064;2022-08-21T06:45:19;17.30;99.90
3275;DHT22;1649;53.672;10.064;2022-08-21T06:47:44;17.70;99.90
3275;DHT22;1649;53.672;10.064;2022-08-21T06:50:10;18.40;99.90
3275;DHT22;1649;53.672;10.064;2022-08-21T06:52:36;18.80;99.90
3275;DHT22;1649;53.672;10.064;2022-08-21T06:55:06;19.20;99.90
3275;DHT22;1649;53.672;10.064;2022-08-21T06:57:32;19.80;99.90
3275;DHT22;1649;53.672;10.064;2022-08-21T06:59:58;20.00;99.90
3275;DHT22;1649;53.672;10.064;2022-08-21T07:02:23;20.10;99.90
3275;DHT22;1649;53.672;10.064;2022-08-21T07:04:49;20.50;99.90
3275;DHT22;1649;53.672;10.064;2022-08-21T07:07:14;20.90;99.90
3275;DHT22;1649;53.672;10.064;2022-08-21T07:09:40;21.50;99.90
3275;DHT22;1649;53.672;10.064;2022-08-21T07:12:05;21.70;99.90
3275;DHT22;1649;53.672;10.064;2022-08-21T07:14:31;22.50;99.90
3275;DHT22;1649;53.672;10.064;2022-08-21T07:16:57;22.80;99.30
3275;DHT22;1649;53.672;10.064;2022-08-21T07:19:23;22.90;99.10
3275;DHT22;1649;53.672;10.064;2022-08-21T07:21:48;23.30;97.20
3275;DHT22;1649;53.672;10.064;2022-08-21T07:24:14;23.40;97.50
3275;DHT22;1649;53.672;10.064;2022-08-21T07:26:40;23.60;97.40
3275;DHT22;1649;53.672;10.064;2022-08-21T07:29:05;24.10;96.20
3275;DHT22;1649;53.672;10.064;2022-08-21T07:31:31;24.10;95.50
3275;DHT22;1649;53.672;10.064;2022-08-21T07:33:56;24.90;96.50
3275;DHT22;1649;53.672;10.064;2022-08-21T07:36:22;25.40;94.40
3275;DHT22;1649;53.672;10.064;2022-08-21T07:38:48;25.60;91.80
3275;DHT22;1649;53.672;10.064;2022-08-21T07:41:17;25.70;93.00
3275;DHT22;1649;53.672;10.064;2022-08-21T07:43:43;26.20;93.40
3275;DHT22;1649;53.672;10.064;2022-08-21T07:46:09;26.60;92.40
3275;DHT22;1649;53.672;10.064;2022-08-21T07:48:34;26.80;90.50
3275;DHT22;1649;53.672;10.064;2022-08-21T07:51:04;27.10;89.70
3275;DHT22;1649;53.672;10.064;2022-08-21T07:53:31;27.20;87.40
3275;DHT22;1649;53.672;10.064;2022-08-21T07:55:59;27.40;87.80
3275;DHT22;1649;53.672;10.064;2022-08-21T07:58:25;27.40;86.50
3275;DHT22;1649;53.672;10.064;2022-08-21T08:00:51;27.40;85.00
3275;DHT22;1649;53.672;10.064;2022-08-21T08:03:16;27.20;88.10
3275;DHT22;1649;53.672;10.064;2022-08-21T08:05:42;27.20;84.00
3275;DHT22;1649;53.672;10.064;2022-08-21T08:08:07;27.10;84.40
3275;DHT22;1649;53.672;10.064;2022-08-21T08:10:33;27.60;82.90
3275;DHT22;1649;53.672;10.064;2022-08-21T08:12:59;27.70;84.60
3275;DHT22;1649;53.672;10.064;2022-08-21T08:15:26;28.40;87.10
3275;DHT22;1649;53.672;10.064;2022-08-21T08:17:52;28.90;81.70
3275;DHT22;1649;53.672;10.064;2022-08-21T08:20:20;29.20;81.30
3275;DHT22;1649;53.672;10.064;2022-08-21T08:22:46;29.40;76.50
3275;DHT22;1649;53.672;10.064;2022-08-21T08:25:13;28.90;78.00
3275;DHT22;1649;53.672;10.064;2022-08-21T08:27:39;29.00;79.70
3275;DHT22;1649;53.672;10.064;2022-08-21T08:30:07;29.50;81.20
3275;DHT22;1649;53.672;10.064;2022-08-21T08:32:33;30.00;76.30
3275;DHT22;1649;53.672;10.064;2022-08-21T08:34:59;30.30;76.80
3275;DHT22;1649;53.672;10.064;2022-08-21T08:37:24;30.10;72.50
3275;DHT22;1649;53.672;10.064;2022-08-21T08:39:50;30.10;73.60
3275;DHT22;1649;53.672;10.064;2022-08-21T08:42:22;29.90;74.30
3275;DHT22;1649;53.672;10.064;2022-08-21T08:44:48;29.70;73.40
3275;DHT22;1649;53.672;10.064;2022-08-21T08:47:16;30.00;76.90
3275;DHT22;1649;53.672;10.064;2022-08-21T08:49:53;30.20;75.60
3275;DHT22;1649;53.672;10.064;2022-08-21T08:52:28;30.50;76.50
3275;DHT22;1649;53.672;10.064;2022-08-21T08:55:17;30.70;75.20
3275;DHT22;1649;53.672;10.064;2022-08-21T08:57:46;30.90;72.70
3275;DHT22;1649;53.672;10.064;2022-08-21T09:00:14;30.70;73.60
3275;DHT22;1649;53.672;10.064;2022-08-21T09:02:42;30.90;75.50
3275;DHT22;1649;53.672;10.064;2022-08-21T09:05:23;31.20;73.60
3275;DHT22;1649;53.672;10.064;2022-08-21T09:13:59;32.30;75.70
3275;DHT22;1649;53.672;10.064;2022-08-21T09:16:54;32.40;70.20
3275;DHT22;1649;53.672;10.064;2022-08-21T09:22:17;32.20;66.10
3275;DHT22;1649;53.672;10.064;2022-08-21T09:25:02;31.20;68.60
3275;DHT22;1649;53.672;10.064;2022-08-21T09:27:33;30.70;73.40
3275;DHT22;1649;53.672;10.064;2022-08-21T09:29:58;30.90;73.20
3275;DHT22;1649;53.672;10.064;2022-08-21T09:32:29;31.50;72.20
3275;DHT22;1649;53.672;10.064;2022-08-21T09:35:15;31.80;70.90
3275;DHT22;1649;53.672;10.064;2022-08-21T09:40:26;32.00;70.70
3275;DHT22;1649;53.672;10.064;2022-08-21T09:42:58;32.30;68.70
3275;DHT22;1649;53.672;10.064;2022-08-21T09:45:24;32.30;68.80
3275;DHT22;1649;53.672;10.064;2022-08-21T09:47:50;32.50;69.10
3275;DHT22;1649;53.672;10.064;2022-08-21T09:50:24;32.20;67.80
3275;DHT22;1649;53.672;10.064;2022-08-21T09:52:55;32.80;68.50
3275;DHT22;1649;53.672;10.064;2022-08-21T09:55:55;33.10;64.90
3275;DHT22;1649;53.672;10.064;2022-08-21T09:58:42;32.90;65.60
3275;DHT22;1649;53.672;10.064;2022-08-21T10:01:17;32.70;66.90
3275;DHT22;1649;53.672;10.064;2022-08-21T10:03:44;32.70;65.70
3275;DHT22;1649;53.672;10.064;2022-08-21T10:06:25;32.20;67.50
3275;DHT22;1649;53.672;10.064;2022-08-21T10:09:05;31.30;68.00
3275;DHT22;1649;53.672;10.064;2022-08-21T10:11:33;31.10;68.50
3275;DHT22;1649;53.672;10.064;2022-08-21T10:14:31;31.10;71.30
3275;DHT22;1649;53.672;10.064;2022-08-21T10:17:17;31.90;69.80
3275;DHT22;1649;53.672;10.064;2022-08-21T10:20:11;31.70;67.40
3275;DHT22;1649;53.672;10.064;2022-08-21T10:22:47;31.30;68.90
3275;DHT22;1649;53.672;10.064;2022-08-21T10:25:31;30.90;69.40
3275;DHT22;1649;53.672;10.064;2022-08-21T10:28:17;30.70;68.40
3275;DHT22;1649;53.672;10.064;2022-08-21T10:30:52;30.90;71.40
3275;DHT22;1649;53.672;10.064;2022-08-21T10:36:09;30.90;67.80
3275;DHT22;1649;53.672;10.064;2022-08-21T10:38:58;30.00;69.50
3275;DHT22;1649;53.672;10.064;2022-08-21T10:44:08;28.90;71.80
3275;DHT22;1649;53.672;10.064;2022-08-21T10:47:00;28.50;72.10
3275;DHT22;1649;53.672;10.064;2022-08-21T10:49:38;28.00;72.10
3275;DHT22;1649;53.672;10.064;2022-08-21T10:54:45;27.50;76.50
3275;DHT22;1649;53.672;10.064;2022-08-21T10:57:25;27.90;74.70
3275;DHT22;1649;53.672;10.064;2022-08-21T11:00:00;27.90;74.70
3275;DHT22;1649;53.672;10.064;2022-08-21T11:05:52;28.60;71.40
3275;DHT22;1649;53.672;10.064;2022-08-21T11:08:26;28.20;73.90
3275;DHT22;1649;53.672;10.064;2022-08-21T11:11:01;28.30;74.70
3275;DHT22;1649;53.672;10.064;2022-08-21T11:13:48;28.00;75.30
3275;DHT22;1649;53.672;10.064;2022-08-21T11:16:32;27.90;76.90
3275;DHT22;1649;53.672;10.064;2022-08-21T11:19:13;28.40;74.10
3275;DHT22;1649;53.672;10.064;2022-08-21T11:21:55;28.70;75.00
3275;DHT22;1649;53.672;10.064;2022-08-21T11:29:38;29.00;68.20
3275;DHT22;1649;53.672;10.064;2022-08-21T11:35:29;29.50;69.00
3275;DHT22;1649;53.672;10.064;2022-08-21T11:40:44;29.80;67.60
3275;DHT22;1649;53.672;10.064;2022-08-21T11:46:17;29.50;65.00
3275;DHT22;1649;53.672;10.064;2022-08-21T11:48:52;29.30;67.30
3275;DHT22;1649;53.672;10.064;2022-08-21T11:51:24;29.00;66.10
3275;DHT22;1649;53.672;10.064;2022-08-21T11:56:36;28.80;69.20
3275;DHT22;1649;53.672;10.064;2022-08-21T11:59:11;28.80;69.00
3275;DHT22;1649;53.672;10.064;2022-08-21T12:01:43;29.10;68.00
3275;DHT22;1649;53.672;10.064;2022-08-21T12:06:43;28.20;67.80
3275;DHT22;1649;53.672;10.064;2022-08-21T12:09:31;27.80;69.60
3275;DHT22;1649;53.672;10.064;2022-08-21T12:14:36;27.50;71.90
3275;DHT22;1649;53.672;10.064;2022-08-21T12:17:07;27.80;69.70
3275;DHT22;1649;53.672;10.064;2022-08-21T12:19:33;28.10;67.80
3275;DHT22;1649;53.672;10.064;2022-08-21T12:24:39;28.80;67.00
3275;DHT22;1649;53.672;10.064;2022-08-21T12:27:28;28.80;65.70
3275;DHT22;1649;53.672;10.064;2022-08-21T12:30:17;28.90;67.30
3275;DHT22;1649;53.672;10.064;2022-08-21T12:32:57;28.80;65.70
3275;DHT22;1649;53.672;10.064;2022-08-21T12:35:32;29.00;67.50
3275;DHT22;1649;53.672;10.064;2022-08-21T12:38:15;28.90;66.80
3275;DHT22;1649;53.672;10.064;2022-08-21T12:40:49;28.40;65.80
3275;DHT22;1649;53.672;10.064;2022-08-21T12:43:21;28.00;68.30
3275;DHT22;1649;53.672;10.064;2022-08-21T12:45:50;27.80;69.50
3275;DHT22;1649;53.672;10.064;2022-08-21T12:48:28;27.70;69.90
3275;DHT22;1649;53.672;10.064;2022-08-21T12:51:14;27.90;69.80
3275;DHT22;1649;53.672;10.064;2022-08-21T12:53:48;28.10;68.50
3275;DHT22;1649;53.672;10.064;2022-08-21T12:56:18;28.40;67.80
3275;DHT22;1649;53.672;10.064;2022-08-21T12:58:47;28.60;66.20
3275;DHT22;1649;53.672;10.064;2022-08-21T13:01:27;28.60;65.60
3275;DHT22;1649;53.672;10.064;2022-08-21T13:03:55;28.70;66.70
3275;DHT22;1649;53.672;10.064;2022-08-21T13:06:23;28.80;65.40
3275;DHT22;1649;53.672;10.064;2022-08-21T13:08:55;28.80;66.40
3275;DHT22;1649;53.672;10.064;2022-08-21T13:11:22;28.90;65.80
3275;DHT22;1649;53.672;10.064;2022-08-21T13:13:50;28.90;66.10
3275;DHT22;1649;53.672;10.064;2022-08-21T13:16:24;28.80;65.40
3275;DHT22;1649;53.672;10.064;2022-08-21T13:18:56;28.70;64.60
3275;DHT22;1649;53.672;10.064;2022-08-21T13:21:31;28.70;65.70
3275;DHT22;1649;53.672;10.064;2022-08-21T13:26:43;28.80;64.30
3275;DHT22;1649;53.672;10.064;2022-08-21T13:29:11;28.90;64.90
3275;DHT22;1649;53.672;10.064;2022-08-21T13:31:39;29.00;63.60
3275;DHT22;1649;53.672;10.064;2022-08-21T13:34:08;29.00;65.10
3275;DHT22;1649;53.672;10.064;2022-08-21T13:36:39;29.00;65.70
3275;DHT22;1649;53.672;10.064;2022-08-21T13:39:08;29.10;65.50
3275;DHT22;1649;53.672;10.064;2022-08-21T13:41:38;28.60;64.90
3275;DHT22;1649;53.672;10.064;2022-08-21T13:44:13;28.40;66.00
3275;DHT22;1649;53.672;10.064;2022-08-21T13:46:39;28.40;66.80
3275;DHT22;1649;53.672;10.064;2022-08-21T13:49:06;28.50;65.80
3275;DHT22;1649;53.672;10.064;2022-08-21T13:51:33;28.50;66.50
3275;DHT22;1649;53.672;10.064;2022-08-21T13:54:00;28.50;64.60
3275;DHT22;1649;53.672;10.064;2022-08-21T13:56:29;28.00;63.70
3275;DHT22;1649;53.672;10.064;2022-08-21T13:58:57;27.60;64.70
3275;DHT22;1649;53.672;10.064;2022-08-21T14:03:57;27.00;67.10
3275;DHT22;1649;53.672;10.064;2022-08-21T14:06:27;27.00;68.40
3275;DHT22;1649;53.672;10.064;2022-08-21T14:08:56;27.00;67.30
3275;DHT22;1649;53.672;10.064;2022-08-21T14:11:24;27.10;67.90
3275;DHT22;1649;53.672;10.064;2022-08-21T14:16:24;27.20;66.80
3275;DHT22;1649;53.672;10.064;2022-08-21T14:21:36;26.90;67.70
3275;DHT22;1649;53.672;10.064;2022-08-21T14:26:54;26.50;69.50
3275;DHT22;1649;53.672;10.064;2022-08-21T14:29:24;26.30;70.10
3275;DHT22;1649;53.672;10.064;2022-08-21T14:31:53;26.10;70.00
3275;DHT22;1649;53.672;10.064;2022-08-21T14:34:21;26.10;70.60
3275;DHT22;1649;53.672;10.064;2022-08-21T14:36:48;26.30;69.50
3275;DHT22;1649;53.672;10.064;2022-08-21T14:39:13;26.50;68.00
3275;DHT22;1649;53.672;10.064;2022-08-21T14:41:39;26.70;68.70
3275;DHT22;1649;53.672;10.064;2022-08-21T14:44:05;27.00;68.60
3275;DHT22;1649;53.672;10.064;2022-08-21T14:46:33;27.30;68.60
3275;DHT22;1649;53.672;10.064;2022-08-21T14:49:00;27.40;67.60
3275;DHT22;1649;53.672;10.064;2022-08-21T14:51:26;27.40;67.20
3275;DHT22;1649;53.672;10.064;2022-08-21T14:53:51;27.50;67.00
3275;DHT22;1649;53.672;10.064;2022-08-21T14:56:17;27.40;65.60
3275;DHT22;1649;53.672;10.064;2022-08-21T14:58:46;27.20;65.90
3275;DHT22;1649;53.672;10.064;2022-08-21T15:01:15;27.20;66.20
3275;DHT22;1649;53.672;10.064;2022-08-21T15:03:41;27.10;66.50
3275;DHT22;1649;53.672;10.064;2022-08-21T15:06:07;27.10;66.80
3275;DHT22;1649;53.672;10.064;2022-08-21T15:08:33;27.10;66.00
3275;DHT22;1649;53.672;10.064;2022-08-21T15:11:00;27.10;67.70
3275;DHT22;1649;53.672;10.064;2022-08-21T15:13:26;27.10;67.20
3275;DHT22;1649;53.672;10.064;2022-08-21T15:15:52;27.00;67.50
3275;DHT22;1649;53.672;10.064;2022-08-21T15:18:19;26.90;66.60
3275;DHT22;1649;53.672;10.064;2022-08-21T15:20:45;26.90;68.10
3275;DHT22;1649;53.672;10.064;2022-08-21T15:23:11;26.90;67.30
3275;DHT22;1649;53.672;10.064;2022-08-21T15:25:40;26.80;67.70
3275;DHT22;1649;53.672;10.064;2022-08-21T15:28:06;26.90;69.00
3275;DHT22;1649;53.672;10.064;2022-08-21T15:30:32;26.90;68.30
3275;DHT22;1649;53.672;10.064;2022-08-21T15:32:57;26.80;68.50
3275;DHT22;1649;53.672;10.064;2022-08-21T15:35:23;26.60;69.70
3275;DHT22;1649;53.672;10.064;2022-08-21T15:37:48;26.60;69.20
3275;DHT22;1649;53.672;10.064;2022-08-21T15:40:15;26.60;69.20
3275;DHT22;1649;53.672;10.064;2022-08-21T15:42:41;26.60;69.30
3275;DHT22;1649;53.672;10.064;2022-08-21T15:45:08;26.60;69.70
3275;DHT22;1649;53.672;10.064;2022-08-21T15:47:37;26.60;69.00
3275;DHT22;1649;53.672;10.064;2022-08-21T15:50:06;26.60;69.70
3275;DHT22;1649;53.672;10.064;2022-08-21T15:52:32;26.60;70.70
3275;DHT22;1649;53.672;10.064;2022-08-21T15:54:58;26.60;69.00
3275;DHT22;1649;53.672;10.064;2022-08-21T15:57:24;26.70;68.80
3275;DHT22;1649;53.672;10.064;2022-08-21T15:59:59;26.70;69.70
3275;DHT22;1649;53.672;10.064;2022-08-21T16:02:31;26.60;68.00
3275;DHT22;1649;53.672;10.064;2022-08-21T16:04:57;26.50;66.90
3275;DHT22;1649;53.672;10.064;2022-08-21T16:07:23;26.40;67.80
3275;DHT22;1649;53.672;10.064;2022-08-21T16:09:48;26.30;68.90
3275;DHT22;1649;53.672;10.064;2022-08-21T16:12:21;26.30;68.20
3275;DHT22;1649;53.672;10.064;2022-08-21T16:14:48;26.20;69.00
3275;DHT22;1649;53.672;10.064;2022-08-21T16:17:15;26.00;70.80
3275;DHT22;1649;53.672;10.064;2022-08-21T16:19:41;25.90;69.20
3275;DHT22;1649;53.672;10.064;2022-08-21T16:22:07;25.90;70.50
3275;DHT22;1649;53.672;10.064;2022-08-21T16:24:32;25.80;71.70
3275;DHT22;1649;53.672;10.064;2022-08-21T16:26:58;25.60;71.00
3275;DHT22;1649;53.672;10.064;2022-08-21T16:29:27;25.40;71.70
3275;DHT22;1649;53.672;10.064;2022-08-21T16:31:54;25.20;73.10
3275;DHT22;1649;53.672;10.064;2022-08-21T16:34:20;25.00;73.40
3275;DHT22;1649;53.672;10.064;2022-08-21T16:36:46;24.90;73.60
3275;DHT22;1649;53.672;10.064;2022-08-21T16:39:12;24.90;73.30
3275;DHT22;1649;53.672;10.064;2022-08-21T16:41:38;24.70;73.10
3275;DHT22;1649;53.672;10.064;2022-08-21T16:44:04;24.60;74.00
3275;DHT22;1649;53.672;10.064;2022-08-21T16:46:34;24.60;76.30
3275;DHT22;1649;53.672;10.064;2022-08-21T16:49:01;24.60;75.20
3275;DHT22;1649;53.672;10.064;2022-08-21T16:51:27;24.60;74.90
3275;DHT22;1649;53.672;10.064;2022-08-21T16:53:53;24.60;75.50
3275;DHT22;1649;53.672;10.064;2022-08-21T16:56:19;24.60;75.50